EDLI 280714Z 16003KT 9999 11/11 Q1024

Wind aktuell: 180° mit 3 kt

Wind 10 Minuten extrem:

120° bis 210° mit 1 kt bis 4 kt

Seitenwindkomponente: 3.1 kt

Wolkengrenze 1: 600

Wolkengrenze 2: keine

Wolkengrenze 3: keine

Sichtweite: 10.000 Meter

Vorheriges Wetter:

Aktuelles Wetter:

Temperatur: 11.9 °C

Taupunkt: 11.8 °C

Luftfeuchtigkeit: 99%

QNH: 1024 hPa 

QFE: 1007 hPa

Diese Daten werden automatisch ermittelt bzw. übertragen und sind nicht geprüft. Für die Richtigkeit wird daher keine Gewähr übernommen. Sie ersetzen im übrigen nicht die Flugwetterberatung. Alle Zeitangaben beziehen sich auf UTC. Die Seite wird einmal die Minute aktualisiert! Sollten Sie ein ältere Seite haben, so drücken Sie bitte auf den Reload Button Ihres Browsers!